Time;durP1;ratioP1;P1;durP2;ratioP2;P2;SDS_P1;SDS_P2;PMS_P1;PMS_P2;Temp;Humidity;BMP_temperature;BMP_pressure;BME280_temperature;BME280_humidity;BME280_pressure;Samples;Min_cycle;Max_cycle;Signal;HPM_P1;HPM_P2
2022/01/04 00:02:19;;;;;;;38.03;21.00;;;;;;;29.09;59.11;101132.41;5017426;28;65518;-39
2022/01/04 00:04:50;;;;;;;35.08;21.77;;;;;;;29.13;60.44;101133.66;5018314;28;69706;-40
2022/01/04 00:07:20;;;;;;;43.22;24.27;;;;;;;29.15;62.41;101131.59;5013780;28;66587;-40
2022/01/04 00:09:52;;;;;;;46.80;25.00;;;;;;;29.01;62.38;101121.75;5016776;28;70243;-40
2022/01/04 00:15:11;;;;;;;38.63;25.17;;;;;;;28.90;63.98;101145.59;5010574;28;70124;-40
2022/01/04 00:17:41;;;;;;;54.80;26.40;;;;;;;28.87;65.16;101145.16;5015318;28;66424;-40
2022/01/04 00:20:11;;;;;;;38.92;26.38;;;;;;;28.81;65.37;101140.59;5016463;28;70287;-42
2022/01/04 00:22:41;;;;;;;49.33;26.30;;;;;;;28.72;64.92;101137.19;5014319;28;66506;-40
2022/01/04 00:25:12;;;;;;;44.75;24.52;;;;;;;28.77;65.53;101150.91;5021708;28;70123;-40
2022/01/04 00:27:42;;;;;;;43.35;23.65;;;;;;;28.88;65.19;101157.63;5016423;28;64942;-40
2022/01/04 00:30:20;;;;;;;57.08;24.15;;;;;;;28.96;65.23;101155.59;5014766;28;70050;-38
2022/01/04 00:32:50;;;;;;;40.30;22.75;;;;;;;28.90;64.83;101151.00;5008327;28;65597;-38
2022/01/04 00:35:21;;;;;;;52.15;22.52;;;;;;;29.07;64.88;101156.91;5028571;28;70151;-39
2022/01/04 00:37:51;;;;;;;39.17;22.05;;;;;;;29.10;65.06;101153.81;5016917;28;66656;-38
2022/01/04 00:40:21;;;;;;;23.40;19.25;;;;;;;29.16;64.42;101166.50;5018710;28;70113;-39
2022/01/04 00:42:55;;;;;;;30.40;18.88;;;;;;;29.22;64.48;101170.25;5018346;28;65674;-39
2022/01/04 00:45:33;;;;;;;34.03;20.52;;;;;;;29.12;64.75;101142.81;5020170;28;70158;-39
2022/01/04 00:50:38;;;;;;;26.50;18.17;;;;;;;29.34;63.39;101189.44;5011982;28;69569;-39
2022/01/04 00:53:09;;;;;;;26.00;18.60;;;;;;;29.36;63.72;101203.56;5011384;28;66676;-42
2022/01/04 00:55:39;;;;;;;32.47;19.27;;;;;;;29.37;63.35;101195.28;5012950;28;69229;-41
2022/01/04 00:58:10;;;;;;;22.60;17.75;;;;;;;29.42;63.14;101196.53;5011484;28;64903;-40
2022/01/04 01:00:40;;;;;;;23.05;17.63;;;;;;;29.38;62.61;101191.53;5014105;28;68705;-38
2022/01/04 01:03:11;;;;;;;22.60;17.02;;;;;;;29.46;62.51;101206.72;5009315;28;66198;-39
2022/01/04 01:05:41;;;;;;;19.88;17.17;;;;;;;29.43;62.79;101198.22;5007983;28;70633;-39
2022/01/04 01:08:11;;;;;;;18.85;16.67;;;;;;;29.46;62.18;101200.50;5003650;28;66291;-39
2022/01/04 01:10:45;;;;;;;25.48;18.15;;;;;;;29.51;62.16;101208.84;5004175;28;70340;-39
2022/01/04 01:13:16;;;;;;;21.23;17.58;;;;;;;29.55;62.32;101208.22;5015992;28;66751;-39
2022/01/04 01:15:47;;;;;;;22.33;17.55;;;;;;;29.54;62.45;101209.25;5006009;28;70840;-39
2022/01/04 01:18:18;;;;;;;20.95;17.35;;;;;;;29.39;61.93;101186.94;5010338;28;66300;-39
2022/01/04 01:20:49;;;;;;;18.20;16.30;;;;;;;29.57;62.17;101222.38;5007839;28;70614;-40
2022/01/04 01:23:23;;;;;;;19.73;17.17;;;;;;;29.60;61.89;101221.13;5013720;28;66224;-39
2022/01/04 01:25:54;;;;;;;19.48;17.40;;;;;;;29.58;61.85;101217.78;5007747;28;69974;-39
2022/01/04 01:28:25;;;;;;;20.00;16.50;;;;;;;29.65;61.77;101224.09;5011277;28;66467;-39
2022/01/04 01:30:55;;;;;;;18.20;16.20;;;;;;;29.66;61.55;101228.44;5010208;28;69304;-40
2022/01/04 01:33:27;;;;;;;21.10;16.40;;;;;;;29.62;61.54;101219.88;5009430;28;66747;-40
2022/01/04 01:35:58;;;;;;;17.60;15.75;;;;;;;29.67;61.19;101224.72;5011275;28;70342;-40
2022/01/04 01:38:28;;;;;;;23.15;17.30;;;;;;;29.57;60.91;101206.16;5015223;28;66586;-40
2022/01/04 01:40:59;;;;;;;23.95;17.08;;;;;;;29.71;61.00;101231.38;5008303;28;70389;-39
2022/01/04 01:43:29;;;;;;;18.73;16.77;;;;;;;29.72;61.01;101234.91;5003006;28;66043;-39
2022/01/04 01:46:00;;;;;;;21.25;16.08;;;;;;;29.74;60.63;101233.66;5007241;28;70555;-38
2022/01/04 01:48:30;;;;;;;23.15;16.52;;;;;;;29.57;61.08;101211.56;5011367;28;66592;-39
2022/01/04 01:51:01;;;;;;;24.55;16.73;;;;;;;29.76;61.00;101242.41;5014530;28;70003;-39
2022/01/04 01:53:32;;;;;;;24.25;17.73;;;;;;;29.77;60.46;101244.06;5010454;28;66352;-40
2022/01/04 01:56:03;;;;;;;18.35;16.45;;;;;;;29.79;60.59;101242.00;5015387;28;70291;-39
2022/01/04 01:58:33;;;;;;;27.40;18.90;;;;;;;29.80;60.78;101238.25;5014573;28;66271;-39
2022/01/04 02:01:03;;;;;;;22.63;17.65;;;;;;;29.81;60.23;101239.09;5015901;28;69859;-39
2022/01/04 02:03:34;;;;;;;24.73;17.23;;;;;;;29.84;60.54;101239.53;5017579;28;65641;-39
2022/01/04 02:06:04;;;;;;;25.88;17.92;;;;;;;29.86;60.00;101243.88;5018298;28;70052;-40
2022/01/04 02:08:35;;;;;;;18.73;16.77;;;;;;;29.84;60.20;101238.69;5008692;28;66136;-41
2022/01/04 02:11:08;;;;;;;19.95;17.73;;;;;;;29.86;60.30;101235.78;5011405;28;70544;-39
2022/01/04 02:13:37;;;;;;;;;;;;;;;29.55;60.95;101239.81;5009317;28;66641;-39
2022/01/04 02:16:09;;;;;;;20.13;17.45;;;;;;;29.88;60.00;101236.41;5012018;28;69859;-39
2022/01/04 02:18:40;;;;;;;21.38;18.23;;;;;;;29.92;60.29;101240.34;5013570;28;65536;-40
2022/01/04 02:21:10;;;;;;;23.45;18.73;;;;;;;29.94;59.93;101241.00;5017203;28;69523;-40
2022/01/04 02:23:41;;;;;;;19.67;17.65;;;;;;;29.94;59.97;101235.59;5013781;28;65369;-38
2022/01/04 02:26:12;;;;;;;21.90;19.13;;;;;;;29.97;59.78;101244.09;5011473;28;69205;-39
2022/01/04 02:28:43;;;;;;;19.60;17.52;;;;;;;29.99;59.74;101238.50;5009616;28;66077;-40
2022/01/04 02:31:13;;;;;;;24.17;19.33;;;;;;;30.00;60.14;101242.88;5011628;28;70883;-40
2022/01/04 02:33:44;;;;;;;19.50;17.48;;;;;;;29.97;59.54;101232.47;4998343;28;66048;-39
2022/01/04 02:36:14;;;;;;;21.20;18.92;;;;;;;30.05;60.08;101245.78;5014316;28;70154;-39
2022/01/04 02:38:44;;;;;;;21.63;18.60;;;;;;;30.04;59.75;101239.56;5015731;28;66811;-39
2022/01/04 02:41:15;;;;;;;24.25;19.33;;;;;;;30.06;59.93;101247.44;5009590;28;70334;-38
2022/01/04 02:43:45;;;;;;;23.33;19.00;;;;;;;30.09;59.98;101246.22;5008587;28;66249;-38
2022/01/04 02:46:15;;;;;;;23.75;18.65;;;;;;;30.13;59.75;101253.72;5015043;28;70329;-39
2022/01/04 02:48:46;;;;;;;21.15;18.90;;;;;;;30.14;59.87;101260.78;5011451;28;66635;-48
2022/01/04 02:51:18;;;;;;;25.40;19.73;;;;;;;30.17;59.77;101254.97;5017212;28;69138;-39
2022/01/04 02:53:50;;;;;;;23.75;21.20;;;;;;;30.19;59.51;101258.28;5012569;28;66354;-40
2022/01/04 02:56:20;;;;;;;28.45;21.08;;;;;;;30.20;59.62;101254.56;5018641;28;68878;-40
2022/01/04 02:58:51;;;;;;;24.25;21.70;;;;;;;30.21;59.26;101250.81;5013417;28;65227;-39
2022/01/04 03:01:22;;;;;;;28.17;19.85;;;;;;;30.23;58.84;101259.59;4999878;28;69731;-39
2022/01/04 03:03:53;;;;;;;20.63;18.52;;;;;;;30.25;58.88;101257.50;5011158;28;64765;-39
2022/01/04 03:06:24;;;;;;;24.33;19.70;;;;;;;30.28;59.24;101261.66;5009007;28;70364;-39
2022/01/04 03:08:54;;;;;;;22.17;20.08;;;;;;;30.28;59.20;101251.69;5006526;28;66858;-41
2022/01/04 03:11:24;;;;;;;25.65;20.63;;;;;;;30.26;58.92;101242.94;5007606;28;70169;-40
2022/01/04 03:13:55;;;;;;;24.88;22.10;;;;;;;30.33;59.01;101247.50;5006490;28;65295;-40
2022/01/04 03:16:26;;;;;;;27.92;23.40;;;;;;;30.32;58.99;101243.16;5016388;28;68747;-40
2022/01/04 03:21:27;;;;;;;28.75;21.73;;;;;;;30.36;58.75;101242.50;5016836;28;70312;-42
2022/01/04 03:23:58;;;;;;;28.92;24.55;;;;;;;30.38;58.50;101234.19;5019759;28;66521;-40
2022/01/04 03:26:28;;;;;;;33.55;23.65;;;;;;;30.38;58.57;101228.78;5017034;28;70455;-40
2022/01/04 03:28:59;;;;;;;27.30;24.27;;;;;;;30.43;58.53;101226.28;5012774;28;66241;-40
2022/01/04 03:31:30;;;;;;;30.90;25.95;;;;;;;30.46;58.43;101228.56;5016025;28;70266;-40
2022/01/04 03:34:01;;;;;;;31.98;24.65;;;;;;;30.46;58.73;101215.03;5014687;28;66234;-39
2022/01/04 03:36:32;;;;;;;27.50;24.65;;;;;;;30.33;58.70;101187.97;5015240;28;70213;-41
2022/01/04 03:39:08;;;;;;;30.97;24.90;;;;;;;30.49;58.81;101199.19;5017524;28;65489;-40
2022/01/04 03:41:42;;;;;;;33.22;27.92;;;;;;;30.54;58.67;101198.59;5009051;28;69956;-39
2022/01/04 03:44:20;;;;;;;27.38;23.98;;;;;;;30.30;58.23;101150.50;5014985;28;66382;-41
2022/01/04 03:46:56;;;;;;;27.55;24.55;;;;;;;30.58;58.11;101190.88;5011794;28;70343;-38
2022/01/04 03:49:26;;;;;;;27.60;24.75;;;;;;;30.58;58.54;101188.97;5012851;28;66727;-39
2022/01/04 03:51:58;;;;;;;28.42;24.38;;;;;;;30.59;58.09;101193.38;5009837;28;69243;-38
2022/01/04 03:54:28;;;;;;;29.30;25.92;;;;;;;30.54;58.37;101170.69;5012193;28;66623;-39
2022/01/04 03:56:58;;;;;;;27.25;24.40;;;;;;;30.60;57.85;101167.94;5012137;28;69451;-38
2022/01/04 03:59:28;;;;;;;29.23;24.48;;;;;;;30.64;57.78;101161.06;5016061;28;66166;-40
2022/01/04 04:01:59;;;;;;;32.47;26.98;;;;;;;30.65;57.93;101151.91;5014763;28;70308;-39
2022/01/04 04:04:30;;;;;;;29.80;26.63;;;;;;;30.66;57.93;101150.03;5011037;28;66315;-39
2022/01/04 04:07:00;;;;;;;42.50;32.70;;;;;;;30.69;58.07;101153.13;5006263;28;70433;-39
2022/01/04 04:09:34;;;;;;;34.78;29.17;;;;;;;30.72;58.10;101155.41;5009426;28;66493;-39
2022/01/04 04:12:05;;;;;;;35.33;27.77;;;;;;;30.73;57.65;101151.69;5007146;28;70130;-39
2022/01/04 04:14:35;;;;;;;36.58;29.33;;;;;;;30.77;57.97;101143.94;5011780;28;66208;-38
2022/01/04 04:17:17;;;;;;;34.80;29.20;;;;;;;30.74;57.83;101144.38;5011699;28;69870;-40
2022/01/04 04:19:49;;;;;;;45.95;34.05;;;;;;;30.60;57.62;101111.09;5014921;28;67358;-39
2022/01/04 04:22:19;;;;;;;38.00;29.63;;;;;;;30.82;57.55;101138.75;5014798;28;69596;-40
2022/01/04 04:24:49;;;;;;;36.38;30.90;;;;;;;30.86;57.82;101123.72;5015626;28;66053;-38
2022/01/04 04:27:20;;;;;;;38.63;30.40;;;;;;;30.87;57.36;101113.72;5016733;28;70281;-39
2022/01/04 04:29:50;;;;;;;33.53;29.15;;;;;;;30.88;57.48;101109.97;5012490;28;66148;-39
2022/01/04 04:32:20;;;;;;;39.00;31.88;;;;;;;30.92;57.33;101119.34;5015079;28;70150;-38
2022/01/04 04:34:51;;;;;;;49.03;36.50;;;;;;;30.92;57.02;101111.19;5012765;28;65604;-38
2022/01/04 04:37:21;;;;;;;43.97;33.85;;;;;;;30.88;57.35;101099.16;5014297;28;70188;-38
2022/01/04 04:39:51;;;;;;;51.05;38.20;;;;;;;30.99;57.20;101111.19;5010557;28;66020;-38
2022/01/04 04:42:22;;;;;;;52.17;39.40;;;;;;;31.01;57.46;101107.22;4998379;28;70240;-39
2022/01/04 04:44:52;;;;;;;50.88;37.75;;;;;;;31.02;57.09;101103.44;5004535;28;65458;-38
2022/01/04 04:47:22;;;;;;;54.20;40.92;;;;;;;31.04;57.27;101097.84;5011705;28;70327;-38
2022/01/04 04:49:53;;;;;;;52.47;41.88;;;;;;;31.06;57.09;101101.97;5009490;28;66006;-38
2022/01/04 04:52:23;;;;;;;52.67;39.40;;;;;;;31.04;56.85;101093.25;5005480;28;70120;-38
2022/01/04 04:54:53;;;;;;;51.47;40.20;;;;;;;31.08;56.80;101089.03;5021985;28;66067;-39
2022/01/04 04:57:23;;;;;;;55.63;39.38;;;;;;;31.11;56.85;101088.59;5014698;28;70104;-38
2022/01/04 04:59:53;;;;;;;52.60;39.70;;;;;;;31.11;56.70;101072.34;5013026;28;65590;-38
2022/01/04 05:02:24;;;;;;;51.65;36.95;;;;;;;31.14;56.83;101082.75;5014619;28;69243;-38
2022/01/04 05:04:54;;;;;;;53.63;37.22;;;;;;;31.20;56.38;101080.22;5009035;28;66432;-39
2022/01/04 05:07:26;;;;;;;49.38;37.50;;;;;;;31.24;56.94;101076.03;5004581;28;70250;-38
2022/01/04 05:09:56;;;;;;;50.93;39.23;;;;;;;31.24;56.56;101073.31;5009795;28;66542;-38
2022/01/04 05:12:27;;;;;;;51.85;38.50;;;;;;;31.23;56.14;101063.53;5011619;28;69072;-39
2022/01/04 05:15:00;;;;;;;49.17;37.22;;;;;;;31.27;56.42;101064.75;5013466;28;66713;-39
2022/01/04 05:17:31;;;;;;;51.20;37.95;;;;;;;31.30;56.31;101064.31;5013151;28;70065;-39
2022/01/04 05:20:02;;;;;;;48.92;37.03;;;;;;;31.30;56.42;101069.75;5012121;28;66245;-40
2022/01/04 05:22:33;;;;;;;48.75;36.60;;;;;;;31.28;56.11;101047.44;5013887;28;69852;-39
2022/01/04 05:25:03;;;;;;;53.95;37.10;;;;;;;31.29;56.28;101041.00;5018364;28;66499;-38
2022/01/04 05:27:33;;;;;;;52.35;37.95;;;;;;;31.34;55.83;101033.00;5016108;28;70127;-38
2022/01/04 05:30:05;;;;;;;53.65;35.67;;;;;;;31.36;55.45;101034.47;5016154;28;66585;-39
2022/01/04 05:32:35;;;;;;;47.63;37.10;;;;;;;31.38;56.26;101034.28;5016793;28;70111;-39
2022/01/04 05:35:06;;;;;;;49.50;38.83;;;;;;;31.35;55.82;101023.84;5011524;28;66629;-39
2022/01/04 05:37:37;;;;;;;50.05;38.47;;;;;;;31.41;56.12;101020.28;5018986;28;69308;-38
2022/01/04 05:40:08;;;;;;;54.00;38.97;;;;;;;31.41;56.05;101025.69;5006423;28;66934;-39
2022/01/04 05:42:38;;;;;;;52.20;39.50;;;;;;;31.41;55.85;101017.56;5016616;28;69904;-38
2022/01/04 05:45:09;;;;;;;55.45;38.65;;;;;;;31.27;55.97;100983.44;5018781;28;65868;-37
2022/01/04 05:47:39;;;;;;;51.20;37.10;;;;;;;31.42;55.60;101008.38;5020342;28;70250;-39
2022/01/04 05:50:10;;;;;;;47.33;37.40;;;;;;;31.39;55.77;101003.38;5014910;28;66349;-39
2022/01/04 05:52:41;;;;;;;47.08;36.88;;;;;;;31.42;55.61;101002.13;5018965;28;70423;-40
2022/01/04 05:55:11;;;;;;;55.13;37.35;;;;;;;31.42;55.80;100997.53;5015416;28;65646;-38
2022/01/04 05:57:41;;;;;;;53.08;38.67;;;;;;;31.29;55.53;100965.09;4991371;28;69100;-39
2022/01/04 06:00:12;;;;;;;52.90;37.03;;;;;;;31.44;55.73;100989.19;5017644;28;66073;-40
2022/01/04 06:02:44;;;;;;;50.50;38.13;;;;;;;31.44;55.59;100979.16;5014715;28;43793;-38
2022/01/04 06:05:21;;;;;;;58.35;38.75;;;;;;;31.47;55.79;100967.03;5015870;28;65516;-38
2022/01/04 06:07:51;;;;;;;51.45;37.20;;;;;;;31.46;55.76;100965.41;5016684;28;70163;-38
2022/01/04 06:10:22;;;;;;;53.30;39.40;;;;;;;31.44;55.69;100962.91;5017393;28;65269;-39
2022/01/04 06:15:22;;;;;;;52.60;37.38;;;;;;;31.45;55.92;100951.00;5018117;28;66166;-38
2022/01/04 06:17:52;;;;;;;56.15;38.72;;;;;;;31.49;55.32;100949.50;5015935;28;70017;-38
2022/01/04 06:20:24;;;;;;;56.13;38.45;;;;;;;31.53;55.45;100950.72;5012900;28;65458;-39
2022/01/04 06:22:54;;;;;;;52.17;36.97;;;;;;;31.46;55.49;100933.69;5018141;28;69963;-39
2022/01/04 06:25:25;;;;;;;51.45;36.97;;;;;;;31.48;55.61;100928.88;5016464;28;66020;-39
2022/01/04 06:27:56;;;;;;;49.40;36.88;;;;;;;31.54;55.40;100935.28;5017057;28;70950;-39
2022/01/04 06:30:26;;;;;;;56.22;38.65;;;;;;;31.52;55.64;100927.38;5018381;28;66308;-39
2022/01/04 06:32:57;;;;;;;46.80;37.28;;;;;;;31.54;55.46;100932.59;5010868;28;69393;-38
2022/01/04 06:35:29;;;;;;;57.50;38.90;;;;;;;31.55;55.57;100920.69;5014351;28;66512;-40
2022/01/04 06:38:04;;;;;;;54.30;38.47;;;;;;;31.57;55.86;100921.28;5014799;28;70447;-40
2022/01/04 06:40:35;;;;;;;50.13;36.90;;;;;;;31.58;55.38;100914.81;5013107;28;66326;-40
2022/01/04 06:43:05;;;;;;;48.42;36.25;;;;;;;31.59;55.48;100916.44;5016249;28;70332;-39
2022/01/04 06:45:35;;;;;;;56.55;37.58;;;;;;;31.56;55.45;100906.88;5016110;28;66042;-40
2022/01/04 06:48:06;;;;;;;52.63;39.22;;;;;;;31.61;55.21;100909.75;5014385;28;70728;-41
2022/01/04 06:50:38;;;;;;;42.88;35.85;;;;;;;31.65;55.43;100909.28;5016594;28;65337;-41
2022/01/04 06:53:09;;;;;;;48.13;36.50;;;;;;;31.67;55.63;100912.63;5011657;28;69416;-39
2022/01/04 06:55:39;;;;;;;48.95;37.13;;;;;;;31.51;55.53;100876.91;5000300;28;66909;-39
2022/01/04 06:58:09;;;;;;;49.83;37.88;;;;;;;31.68;55.54;100898.00;5012263;28;70173;-38
2022/01/04 07:00:40;;;;;;;54.97;37.97;;;;;;;31.70;55.65;100901.31;5012791;28;65467;-38
2022/01/04 07:03:10;;;;;;;50.80;37.45;;;;;;;31.68;55.33;100898.00;5013518;28;69961;-38
2022/01/04 07:05:40;;;;;;;50.97;37.25;;;;;;;31.74;55.20;100899.81;5011065;28;65390;-39
2022/01/04 07:08:11;;;;;;;48.08;37.80;;;;;;;31.75;55.09;100896.06;5013980;28;69424;-39
2022/01/04 07:10:41;;;;;;;46.13;37.17;;;;;;;31.74;55.54;100894.41;5013486;28;65267;-39
2022/01/04 07:13:11;;;;;;;51.17;37.67;;;;;;;31.75;55.38;100893.34;5016552;28;68709;-40
2022/01/04 07:15:46;;;;;;;49.58;36.05;;;;;;;31.77;55.31;100896.66;4997685;28;66288;-40
2022/01/04 07:18:16;;;;;;;44.80;35.42;;;;;;;31.74;55.47;100887.09;5016860;28;68792;-39
2022/01/04 07:20:47;;;;;;;42.33;36.40;;;;;;;31.76;55.30;100885.00;5011249;28;66379;-39
2022/01/04 07:26:49;;;;;;;46.17;35.15;;;;;;;31.82;55.21;100877.84;5054151;28;66437;-39
2022/01/04 07:29:20;;;;;;;48.10;35.88;;;;;;;31.86;55.30;100884.44;5017723;28;70716;-39
2022/01/04 07:31:50;;;;;;;47.53;36.47;;;;;;;31.87;55.34;100885.25;5015249;28;66289;-39
2022/01/04 07:34:21;;;;;;;42.85;34.95;;;;;;;31.90;54.99;100885.66;5016200;28;69549;-39
2022/01/04 07:36:51;;;;;;;44.85;35.50;;;;;;;31.93;55.15;100878.97;5027989;28;66762;-39
2022/01/04 07:39:21;;;;;;;48.38;34.47;;;;;;;31.94;54.86;100877.91;5009641;28;69423;-39
2022/01/04 07:41:51;;;;;;;45.22;34.65;;;;;;;31.97;54.91;100885.59;5013168;28;65789;-40
2022/01/04 07:44:22;;;;;;;43.92;35.03;;;;;;;31.89;55.31;100865.00;5013703;28;70308;-39
2022/01/04 07:46:52;;;;;;;43.22;33.80;;;;;;;31.94;54.84;100870.59;5009462;28;65370;-39
2022/01/04 07:49:23;;;;;;;40.47;33.25;;;;;;;32.01;55.34;100875.94;5016134;28;70353;-39
2022/01/04 07:51:53;;;;;;;44.40;33.40;;;;;;;31.98;54.81;100874.53;5013337;28;66320;-38
2022/01/04 07:54:23;;;;;;;42.28;34.22;;;;;;;32.01;54.92;100870.50;5014810;28;70446;-38
2022/01/04 07:56:54;;;;;;;39.22;32.85;;;;;;;32.04;54.90;100881.75;5015430;28;65529;-39
2022/01/04 07:59:29;;;;;;;39.58;33.03;;;;;;;32.04;55.07;100876.34;5011101;28;69833;-38
2022/01/04 08:02:00;;;;;;;36.65;32.63;;;;;;;32.07;55.06;100874.19;5015627;28;66691;-38
2022/01/04 08:04:30;;;;;;;37.13;31.88;;;;;;;32.02;54.85;100861.34;5005867;28;69749;-39
2022/01/04 08:07:00;;;;;;;42.38;31.02;;;;;;;32.10;54.64;100868.34;5006983;28;66450;-38
2022/01/04 08:09:32;;;;;;;44.47;33.15;;;;;;;32.12;54.86;100860.78;5007424;28;69198;-38
2022/01/04 08:12:04;;;;;;;40.88;32.78;;;;;;;32.13;54.99;100863.28;5010806;28;65367;-38
2022/01/04 08:14:34;;;;;;;38.35;32.67;;;;;;;32.15;54.80;100863.03;5012202;28;70091;-39
2022/01/04 08:17:07;;;;;;;39.95;31.48;;;;;;;32.13;54.64;100857.03;4995688;28;65312;-38
2022/01/04 08:19:37;;;;;;;37.80;31.25;;;;;;;32.16;54.61;100857.38;5017017;28;70182;-39
2022/01/04 08:22:07;;;;;;;40.30;30.77;;;;;;;32.17;55.18;100859.03;5009226;28;66503;-38
2022/01/04 08:24:37;;;;;;;45.75;30.75;;;;;;;32.19;54.56;100853.38;5012290;28;70130;-39
2022/01/04 08:27:08;;;;;;;37.72;30.23;;;;;;;32.19;54.30;100850.66;5014830;28;66108;-40
2022/01/04 08:29:38;;;;;;;36.63;30.42;;;;;;;32.23;54.44;100851.84;5013028;28;70227;-39
2022/01/04 08:32:08;;;;;;;34.17;30.27;;;;;;;32.23;54.68;100858.13;5016184;28;65070;-39
2022/01/04 08:34:39;;;;;;;43.15;30.17;;;;;;;32.22;54.50;100859.16;5013753;28;70630;-39
2022/01/04 08:37:09;;;;;;;36.15;30.05;;;;;;;32.26;54.63;100864.94;4999911;28;66313;-39
2022/01/04 08:39:40;;;;;;;33.10;28.83;;;;;;;32.22;54.78;100864.59;5014234;28;69445;-39
2022/01/04 08:42:11;;;;;;;32.00;27.53;;;;;;;32.26;54.74;100871.25;5010327;28;66105;-38
2022/01/04 08:44:41;;;;;;;34.10;28.38;;;;;;;32.23;54.24;100868.97;5009270;28;69424;-38
2022/01/04 08:47:12;;;;;;;34.28;28.88;;;;;;;32.28;54.35;100866.38;5012849;28;65601;-39
2022/01/04 08:49:42;;;;;;;32.70;28.52;;;;;;;32.29;54.36;100867.25;5008793;28;69720;-38
2022/01/04 08:52:13;;;;;;;40.60;27.70;;;;;;;32.29;54.65;100861.81;5007338;28;66373;-39
2022/01/04 08:54:43;;;;;;;33.03;27.92;;;;;;;32.29;54.48;100861.81;5014640;28;68992;-38
2022/01/04 08:57:13;;;;;;;33.58;28.10;;;;;;;32.31;54.27;100856.13;5013952;28;66749;-38
2022/01/04 08:59:44;;;;;;;34.20;27.17;;;;;;;32.34;54.67;100864.63;5013883;28;69079;-39
2022/01/04 09:02:14;;;;;;;35.92;27.55;;;;;;;32.33;54.64;100863.00;5006541;28;66402;-38
2022/01/04 09:04:44;;;;;;;34.55;26.73;;;;;;;32.35;54.61;100877.16;5012120;28;70135;-39
2022/01/04 09:07:16;;;;;;;30.40;25.80;;;;;;;32.36;54.36;100869.84;5007518;28;65332;-40
2022/01/04 09:09:46;;;;;;;28.23;24.95;;;;;;;32.37;54.38;100880.47;5014006;28;70331;-38
2022/01/04 09:12:45;;;;;;;28.55;24.90;;;;;;;32.38;54.34;100882.13;5010496;28;65956;-38
2022/01/04 09:21:23;;;;;;;27.33;23.83;;;;;;;32.36;54.24;100872.56;5013042;28;70519;-38
2022/01/04 09:23:58;;;;;;;27.25;23.00;;;;;;;32.28;53.94;100866.38;5024608;28;65707;-39
2022/01/04 09:26:30;;;;;;;27.98;23.63;;;;;;;32.35;54.01;100877.16;5020184;28;70104;-38
2022/01/04 09:29:01;;;;;;;29.15;24.05;;;;;;;32.40;54.28;100880.03;5015159;28;65298;-39
2022/01/04 09:31:31;;;;;;;25.02;22.52;;;;;;;32.40;54.20;100884.59;5016107;28;70210;-38
2022/01/04 09:34:03;;;;;;;25.73;21.40;;;;;;;32.24;54.32;100861.66;5003564;28;66023;-39
2022/01/04 09:36:39;;;;;;;24.63;20.27;;;;;;;32.43;54.36;100890.41;5009615;28;70114;-39
2022/01/04 09:39:21;;;;;;;23.33;19.52;;;;;;;32.39;54.28;100893.81;5009318;28;65710;-39
2022/01/04 09:41:56;;;;;;;24.35;19.83;;;;;;;32.40;54.56;100909.88;5011957;28;70654;-39
2022/01/04 09:44:27;;;;;;;21.17;18.90;;;;;;;32.38;54.42;100906.56;4993045;28;66283;-39
2022/01/04 09:47:02;;;;;;;21.48;19.17;;;;;;;32.37;54.46;100907.59;5011508;28;71438;-38
2022/01/04 09:49:33;;;;;;;19.83;17.67;;;;;;;32.40;54.71;100915.31;5013339;28;66467;-38
2022/01/04 09:52:06;;;;;;;25.55;18.13;;;;;;;32.39;54.51;100927.22;5012634;28;69668;-39
2022/01/04 09:54:39;;;;;;;19.55;16.95;;;;;;;32.23;54.61;100898.00;5010046;28;65697;-38
2022/01/04 09:57:09;;;;;;;20.88;17.00;;;;;;;32.36;54.62;100927.69;5002590;28;70399;-38
2022/01/04 09:59:39;;;;;;;23.67;16.10;;;;;;;32.36;54.50;100927.69;4996832;28;65981;-39
2022/01/04 10:02:19;;;;;;;19.92;16.48;;;;;;;32.37;54.30;100929.31;5003918;28;70033;-39
2022/01/04 10:04:50;;;;;;;18.23;16.30;;;;;;;32.33;54.56;100928.13;5006224;28;66081;-40
2022/01/04 10:07:22;;;;;;;16.95;15.18;;;;;;;32.37;54.50;100940.19;5008141;28;70062;-38
2022/01/04 10:10:06;;;;;;;21.20;15.00;;;;;;;32.32;54.64;100937.34;5013981;28;66189;-38
2022/01/04 10:12:59;;;;;;;20.63;14.73;;;;;;;32.33;54.33;100943.59;5007221;28;70027;-38
2022/01/04 10:15:45;;;;;;;16.83;14.88;;;;;;;32.35;54.37;100941.50;5014861;28;65298;-39
2022/01/04 10:18:20;;;;;;;17.77;14.60;;;;;;;32.31;54.37;100941.09;5017778;28;70214;-38
2022/01/04 10:21:12;;;;;;;15.25;13.77;;;;;;;32.23;54.74;100944.13;5017996;28;65969;-38
2022/01/04 10:23:52;;;;;;;20.70;14.32;;;;;;;32.10;54.53;100914.47;5016055;28;70474;-38
2022/01/04 10:26:35;;;;;;;22.85;13.77;;;;;;;32.23;55.08;100939.56;4998668;28;66584;-40
2022/01/04 10:29:22;;;;;;;14.77;13.05;;;;;;;32.09;54.83;100920.94;5011672;28;70427;-40
2022/01/04 10:31:52;;;;;;;14.70;11.68;;;;;;;32.27;54.90;100954.31;5008582;28;66624;-39
2022/01/04 10:34:23;;;;;;;13.75;12.45;;;;;;;32.27;55.02;100956.19;5010479;28;70182;-39
2022/01/04 10:36:53;;;;;;;15.32;13.00;;;;;;;32.26;55.09;100962.66;5014267;28;66570;-39
2022/01/04 10:39:24;;;;;;;14.00;12.32;;;;;;;32.12;54.98;100939.47;5019938;28;70638;-39
2022/01/04 10:42:06;;;;;;;16.40;12.57;;;;;;;32.09;55.78;100943.47;5020368;28;64738;-39
2022/01/04 10:44:36;;;;;;;16.33;10.68;;;;;;;32.22;55.94;100966.91;5015534;28;70412;-41
2022/01/04 10:47:10;;;;;;;30.58;10.68;;;;;;;32.26;56.57;100965.38;5019491;28;65782;-39
2022/01/04 10:49:42;;;;;;;21.05;9.63;;;;;;;32.25;56.62;100958.31;5015352;28;70603;-43
2022/01/04 10:52:20;;;;;;;21.80;9.68;;;;;;;32.27;56.97;100961.63;5019366;28;66272;-39
2022/01/04 10:55:13;;;;;;;17.05;9.43;;;;;;;32.23;57.83;100965.84;5019484;28;69426;-40
2022/01/04 10:57:43;;;;;;;11.73;8.90;;;;;;;32.27;56.88;100967.06;5019933;28;66596;-41
2022/01/04 11:00:22;;;;;;;18.65;8.80;;;;;;;32.25;57.23;100961.84;5012713;28;70120;-38
2022/01/04 11:02:52;;;;;;;34.55;9.82;;;;;;;32.26;57.57;100970.81;5020336;28;64681;-39
2022/01/04 11:05:23;;;;;;;23.05;9.55;;;;;;;32.24;57.45;100968.34;5016808;28;69758;-41
2022/01/04 11:08:09;;;;;;;20.02;8.45;;;;;;;32.18;57.29;100963.84;5015770;28;65985;-39
2022/01/04 11:10:41;;;;;;;13.52;8.25;;;;;;;32.23;57.20;100976.69;5018556;28;71371;-38
2022/01/04 11:13:12;;;;;;;19.00;9.02;;;;;;;32.21;57.21;100984.25;5017003;28;65440;-38
2022/01/04 11:15:43;;;;;;;17.70;8.13;;;;;;;32.22;57.63;100980.47;5017364;28;70105;-39
2022/01/04 11:18:13;;;;;;;19.42;8.10;;;;;;;32.16;57.40;100981.41;5013545;28;65455;-39
2022/01/04 11:20:46;;;;;;;20.08;7.97;;;;;;;32.23;57.47;100993.84;5015043;28;70053;-47
2022/01/04 11:23:22;;;;;;;20.08;9.10;;;;;;;32.11;57.78;100978.53;5014356;28;66718;-38
2022/01/04 11:25:53;;;;;;;19.63;9.43;;;;;;;32.21;57.33;101003.25;5015124;28;70430;-39
2022/01/04 11:28:24;;;;;;;20.63;8.98;;;;;;;32.22;57.90;101004.91;5018465;28;66807;-39
2022/01/04 11:31:19;;;;;;;24.50;8.90;;;;;;;32.20;57.79;101009.72;5018908;28;70269;-38
2022/01/04 11:34:38;;;;;;;15.65;7.75;;;;;;;32.09;58.29;101011.31;5016412;28;65503;-39
2022/01/04 11:37:20;;;;;;;18.63;7.38;;;;;;;32.16;58.36;101008.53;5023115;28;70363;-38
2022/01/04 11:39:52;;;;;;;;;;;;;;;31.88;58.95;101011.72;5016233;28;66423;-38
2022/01/04 11:42:31;;;;;;;23.52;8.32;;;;;;;32.12;57.74;101015.44;5016721;28;70320;-38
2022/01/04 11:45:04;;;;;;;14.18;7.32;;;;;;;32.13;57.72;101015.25;5018268;28;66541;-38
2022/01/04 11:47:37;;;;;;;22.05;8.20;;;;;;;32.12;57.99;101015.44;5009997;28;69841;-39
2022/01/04 11:50:24;;;;;;;13.45;7.80;;;;;;;32.11;57.93;101019.22;5016607;28;65453;-39
2022/01/04 11:52:56;;;;;;;15.85;7.47;;;;;;;31.95;58.66;100996.22;5011929;28;69010;-39